Armstrong, Florida
Current Conditions -  °F | °C
As of 5:58 AM on Saturday 25 Oct 2014 (Local Time) from KSGJ Reporting Station
Clear Clear  
Wind Chill: 57°   Ceiling: Unl
Heat Index: 57°   Visibility: 10mi
Dew Point: 54°   Wind: 6mph
Humidity: 89%   Direction: 310°NW
Pressure: 29.98"   Gusts: NA
Location:  29.7919°N, 81.4499°W
Report Text: KSGJ 250958Z AUTO 31005KT 10SM CLR 14/12 A2998 RMK AO2 SLP152 T01390122
Loading
Personal Weather Stations






























Interactive Weather Map
Tropical Storm Tracking
New forecast layout! Learn more

10-Day Weather Forecast

Advertisements
Track Severe Weather on mobile